Ringaskiddy, Ireland
Current Conditions -  °F | °C
As of 6:00 PM on Friday 24 Oct 2014 (Local Time) from EICK Reporting Station
Few Clouds Few Clouds  
Wind Chill: 50°   Ceiling: Unl
Heat Index: 50°   Visibility: 6mi
Dew Point: 45°   Wind: 10mph
Humidity: 82%   Direction: 230°SW
Pressure: 29.91"   Gusts: NA
Location:  51.83°N, 8.32°W
Report Text: EICK 241700Z 23009KT 9999 FEW020CB 10/07 Q1013 NOSIG
Loading
Personal Weather Stations






























Interactive Weather Map
Tropical Storm Tracking
New forecast layout! Learn more

10-Day Weather Forecast

Advertisements
Track Severe Weather on mobile